Observations

79.5 °F / 26.4 °C
ENE at 8 MPH
86%
75.0°F / 23.9 °C
29.87" (1011 mb)
10 mile(s)
clear
2022.06.30 1100 UTC

Observations

Surface


Raw METARs

2022/06/30 11:00
PKWA 301100Z AUTO 06007KT 10SM CLR 26/24 A2987 RMK AO2 T02640239

Translated METAR

Kwajalein, Bucholz AAF, Kwajalein KMR ATOL Airport, Marshall Islands (PKWA) 08-43N 167-44E 2M
Jun 30, 2022 - 07:00 AM EDT / 2022.06.30 1100 UTC
Wind: from the ENE (060 degrees) at 8 MPH (7 KT):0
Visibility: 10 mile(s):0
Sky conditions: clear
Temperature: 79.5 F (26.4 C)
Dew Point: 75.0 F (23.9 C)
Relative Humidity: 86%
Pressure (altimeter): 29.87 in. Hg (1011 hPa)
ob: PKWA 301100Z AUTO 06007KT 10SM CLR 26/24 A2987 RMK AO2 T02640239
cycle: 11



Upper Air


Latest Skew-T

Skew T Diagram

Latest Data File